sensor_id;sensor_type;location;lat;lon;timestamp;pressure;altitude;pressure_sealevel;temperature;humidity
20971;BME280;10644;48.834;10.088;2023-07-30T00:00:26;96228.91;;;23.73;65.71
20971;BME280;10644;48.834;10.088;2023-07-30T00:03:02;96236.69;;;23.81;65.76
20971;BME280;10644;48.834;10.088;2023-07-30T00:05:41;96248.50;;;23.77;65.70
20971;BME280;10644;48.834;10.088;2023-07-30T00:08:38;96271.09;;;23.70;65.59
20971;BME280;10644;48.834;10.088;2023-07-30T00:11:18;96343.22;;;23.26;67.08
20971;BME280;10644;48.834;10.088;2023-07-30T00:16:44;96338.59;;;22.17;65.76
20971;BME280;10644;48.834;10.088;2023-07-30T00:19:09;96281.78;;;21.87;66.06
20971;BME280;10644;48.834;10.088;2023-07-30T00:21:53;96313.47;;;22.00;65.73
20971;BME280;10644;48.834;10.088;2023-07-30T00:24:35;96310.03;;;22.00;65.89
20971;BME280;10644;48.834;10.088;2023-07-30T00:27:35;96337.38;;;21.72;65.52
20971;BME280;10644;48.834;10.088;2023-07-30T00:30:11;96326.56;;;21.59;66.04
20971;BME280;10644;48.834;10.088;2023-07-30T00:32:42;96275.53;;;21.64;65.58
20971;BME280;10644;48.834;10.088;2023-07-30T00:35:59;96262.25;;;21.91;65.07
20971;BME280;10644;48.834;10.088;2023-07-30T00:38:45;96268.59;;;21.89;64.69
20971;BME280;10644;48.834;10.088;2023-07-30T00:44:25;96255.91;;;22.10;63.76
20971;BME280;10644;48.834;10.088;2023-07-30T00:47:02;96244.97;;;21.98;63.68
20971;BME280;10644;48.834;10.088;2023-07-30T00:49:42;96256.69;;;21.78;65.72
20971;BME280;10644;48.834;10.088;2023-07-30T00:52:16;96248.31;;;21.67;65.50
20971;BME280;10644;48.834;10.088;2023-07-30T00:54:43;96238.28;;;21.80;65.51
20971;BME280;10644;48.834;10.088;2023-07-30T00:57:21;96253.41;;;21.76;66.47
20971;BME280;10644;48.834;10.088;2023-07-30T00:59:48;96279.63;;;21.67;66.85
20971;BME280;10644;48.834;10.088;2023-07-30T01:02:21;96272.09;;;21.56;67.00
20971;BME280;10644;48.834;10.088;2023-07-30T01:05:17;96304.78;;;21.76;67.43
20971;BME280;10644;48.834;10.088;2023-07-30T01:07:45;96287.50;;;21.83;66.68
20971;BME280;10644;48.834;10.088;2023-07-30T01:10:27;96297.97;;;21.91;66.22
20971;BME280;10644;48.834;10.088;2023-07-30T01:13:27;96269.56;;;21.96;65.51
20971;BME280;10644;48.834;10.088;2023-07-30T01:18:55;96273.53;;;22.08;65.09
20971;BME280;10644;48.834;10.088;2023-07-30T01:21:30;96278.88;;;22.14;64.90
20971;BME280;10644;48.834;10.088;2023-07-30T01:24:02;96275.13;;;22.17;64.87
20971;BME280;10644;48.834;10.088;2023-07-30T01:30:11;96300.41;;;22.24;64.61
20971;BME280;10644;48.834;10.088;2023-07-30T01:32:51;96272.84;;;22.06;64.84
20971;BME280;10644;48.834;10.088;2023-07-30T01:35:25;96291.78;;;22.16;65.41
20971;BME280;10644;48.834;10.088;2023-07-30T01:37:52;96283.78;;;22.17;65.65
20971;BME280;10644;48.834;10.088;2023-07-30T01:40:32;96297.66;;;22.26;65.82
20971;BME280;10644;48.834;10.088;2023-07-30T01:43:10;96276.44;;;21.97;66.09
20971;BME280;10644;48.834;10.088;2023-07-30T01:45:49;96286.53;;;22.00;65.68
20971;BME280;10644;48.834;10.088;2023-07-30T01:52:49;96284.59;;;21.86;66.41
20971;BME280;10644;48.834;10.088;2023-07-30T01:58:17;96293.38;;;22.01;65.63
20971;BME280;10644;48.834;10.088;2023-07-30T02:01:16;96277.91;;;21.91;64.87
20971;BME280;10644;48.834;10.088;2023-07-30T02:06:51;96294.03;;;21.95;65.65
20971;BME280;10644;48.834;10.088;2023-07-30T02:09:43;96280.34;;;21.93;65.79
20971;BME280;10644;48.834;10.088;2023-07-30T02:12:20;96284.59;;;21.86;66.16
20971;BME280;10644;48.834;10.088;2023-07-30T02:14:54;96281.16;;;21.85;66.22
20971;BME280;10644;48.834;10.088;2023-07-30T02:17:40;96283.59;;;21.71;66.17
20971;BME280;10644;48.834;10.088;2023-07-30T02:20:29;96294.94;;;21.62;65.86
20971;BME280;10644;48.834;10.088;2023-07-30T02:23:03;96298.00;;;21.49;66.04
20971;BME280;10644;48.834;10.088;2023-07-30T02:25:48;96289.72;;;21.54;66.41
20971;BME280;10644;48.834;10.088;2023-07-30T02:28:27;96292.81;;;21.57;65.91
20971;BME280;10644;48.834;10.088;2023-07-30T02:31:01;96284.78;;;21.35;67.23
20971;BME280;10644;48.834;10.088;2023-07-30T02:33:32;96287.69;;;21.40;67.49
20971;BME280;10644;48.834;10.088;2023-07-30T02:36:00;96286.13;;;21.55;67.39
20971;BME280;10644;48.834;10.088;2023-07-30T02:38:36;96289.72;;;21.62;66.74
20971;BME280;10644;48.834;10.088;2023-07-30T02:41:09;96291.03;;;21.58;66.94
20971;BME280;10644;48.834;10.088;2023-07-30T02:43:37;96297.88;;;21.59;67.22
20971;BME280;10644;48.834;10.088;2023-07-30T02:46:11;96281.06;;;21.53;67.28
20971;BME280;10644;48.834;10.088;2023-07-30T02:48:47;96301.28;;;21.51;67.74
20971;BME280;10644;48.834;10.088;2023-07-30T02:51:16;96295.41;;;21.49;68.01
20971;BME280;10644;48.834;10.088;2023-07-30T02:53:45;96308.47;;;21.65;67.78
20971;BME280;10644;48.834;10.088;2023-07-30T02:56:13;96292.00;;;21.65;67.62
20971;BME280;10644;48.834;10.088;2023-07-30T02:58:52;96287.81;;;21.72;66.94
20971;BME280;10644;48.834;10.088;2023-07-30T03:01:25;96298.50;;;21.53;67.31
20971;BME280;10644;48.834;10.088;2023-07-30T03:03:56;96304.94;;;21.25;68.33
20971;BME280;10644;48.834;10.088;2023-07-30T03:06:32;96315.00;;;21.20;68.25
20971;BME280;10644;48.834;10.088;2023-07-30T03:09:24;96303.31;;;21.24;68.61
20971;BME280;10644;48.834;10.088;2023-07-30T03:11:53;96306.13;;;21.38;68.71
20971;BME280;10644;48.834;10.088;2023-07-30T03:14:27;96308.59;;;21.56;68.66
20971;BME280;10644;48.834;10.088;2023-07-30T03:17:00;96328.56;;;21.73;68.09
20971;BME280;10644;48.834;10.088;2023-07-30T03:19:30;96312.91;;;21.73;67.95
20971;BME280;10644;48.834;10.088;2023-07-30T03:22:16;96329.59;;;21.88;67.34
20971;BME280;10644;48.834;10.088;2023-07-30T03:24:50;96327.97;;;21.95;67.36
20971;BME280;10644;48.834;10.088;2023-07-30T03:27:23;96312.31;;;21.87;67.35
20971;BME280;10644;48.834;10.088;2023-07-30T03:30:02;96335.97;;;22.01;67.20
20971;BME280;10644;48.834;10.088;2023-07-30T03:32:31;96309.69;;;21.95;67.16
20971;BME280;10644;48.834;10.088;2023-07-30T03:35:06;96310.53;;;21.95;66.90
20971;BME280;10644;48.834;10.088;2023-07-30T03:37:37;96320.78;;;22.13;67.57
20971;BME280;10644;48.834;10.088;2023-07-30T03:40:09;96314.75;;;22.04;66.88
20971;BME280;10644;48.834;10.088;2023-07-30T03:42:41;96322.75;;;22.11;67.14
20971;BME280;10644;48.834;10.088;2023-07-30T03:45:17;96308.88;;;22.10;66.70
20971;BME280;10644;48.834;10.088;2023-07-30T03:47:43;96310.19;;;22.14;66.85
20971;BME280;10644;48.834;10.088;2023-07-30T03:50:22;96299.78;;;22.06;66.74
20971;BME280;10644;48.834;10.088;2023-07-30T03:52:52;96316.25;;;22.23;66.86
20971;BME280;10644;48.834;10.088;2023-07-30T03:55:23;96302.38;;;22.14;66.29
20971;BME280;10644;48.834;10.088;2023-07-30T03:57:52;96321.31;;;22.24;66.56
20971;BME280;10644;48.834;10.088;2023-07-30T04:00:23;96319.84;;;22.22;66.39
20971;BME280;10644;48.834;10.088;2023-07-30T04:02:50;96308.72;;;22.12;66.43
20971;BME280;10644;48.834;10.088;2023-07-30T04:05:18;96332.72;;;22.23;66.40
20971;BME280;10644;48.834;10.088;2023-07-30T04:07:45;96310.53;;;22.11;66.73
20971;BME280;10644;48.834;10.088;2023-07-30T04:10:26;96319.50;;;22.17;66.84
20971;BME280;10644;48.834;10.088;2023-07-30T04:12:59;96298.16;;;22.05;66.59
20971;BME280;10644;48.834;10.088;2023-07-30T04:15:25;96321.44;;;21.91;67.56
20971;BME280;10644;48.834;10.088;2023-07-30T04:17:50;96324.38;;;21.96;67.94
20971;BME280;10644;48.834;10.088;2023-07-30T04:20:16;96336.31;;;22.06;67.56
20971;BME280;10644;48.834;10.088;2023-07-30T04:22:43;96337.09;;;22.07;67.36
20971;BME280;10644;48.834;10.088;2023-07-30T04:25:08;96331.25;;;22.05;67.30
20971;BME280;10644;48.834;10.088;2023-07-30T04:27:36;96328.78;;;22.03;67.31
20971;BME280;10644;48.834;10.088;2023-07-30T04:30:01;96339.41;;;22.10;67.12
20971;BME280;10644;48.834;10.088;2023-07-30T04:32:29;96350.31;;;22.21;66.99
20971;BME280;10644;48.834;10.088;2023-07-30T04:34:55;96341.03;;;22.19;67.00
20971;BME280;10644;48.834;10.088;2023-07-30T04:37:20;96343.97;;;22.24;66.95
20971;BME280;10644;48.834;10.088;2023-07-30T04:39:47;96343.63;;;22.19;67.02
20971;BME280;10644;48.834;10.088;2023-07-30T04:42:12;96338.41;;;22.19;66.84
20971;BME280;10644;48.834;10.088;2023-07-30T04:44:38;96359.00;;;22.22;67.06
20971;BME280;10644;48.834;10.088;2023-07-30T04:47:04;96348.72;;;22.12;67.61
20971;BME280;10644;48.834;10.088;2023-07-30T04:49:29;96347.84;;;21.96;68.37
20971;BME280;10644;48.834;10.088;2023-07-30T04:51:55;96358.44;;;21.86;69.09
20971;BME280;10644;48.834;10.088;2023-07-30T04:54:20;96349.78;;;21.78;69.73
20971;BME280;10644;48.834;10.088;2023-07-30T04:56:48;96350.09;;;21.75;70.08
20971;BME280;10644;48.834;10.088;2023-07-30T04:59:17;96357.78;;;21.84;69.91
20971;BME280;10644;48.834;10.088;2023-07-30T05:01:47;96356.28;;;21.74;70.59
20971;BME280;10644;48.834;10.088;2023-07-30T05:04:15;96355.13;;;21.76;70.52
20971;BME280;10644;48.834;10.088;2023-07-30T05:06:41;96351.41;;;21.79;70.50
20971;BME280;10644;48.834;10.088;2023-07-30T05:09:07;96351.88;;;21.82;70.37
20971;BME280;10644;48.834;10.088;2023-07-30T05:11:41;96343.56;;;21.79;70.96
20971;BME280;10644;48.834;10.088;2023-07-30T05:14:07;96353.22;;;21.86;70.82
20971;BME280;10644;48.834;10.088;2023-07-30T05:16:33;96351.13;;;21.98;70.71
20971;BME280;10644;48.834;10.088;2023-07-30T05:19:04;96358.63;;;21.93;70.93
20971;BME280;10644;48.834;10.088;2023-07-30T05:21:34;96352.75;;;21.99;70.76
20971;BME280;10644;48.834;10.088;2023-07-30T05:24:02;96367.13;;;22.11;70.74
20971;BME280;10644;48.834;10.088;2023-07-30T05:26:28;96351.13;;;21.98;71.15
20971;BME280;10644;48.834;10.088;2023-07-30T05:28:53;96372.69;;;22.08;71.09
20971;BME280;10644;48.834;10.088;2023-07-30T05:31:18;96368.44;;;22.15;71.00
20971;BME280;10644;48.834;10.088;2023-07-30T05:33:44;96373.34;;;22.26;70.83
20971;BME280;10644;48.834;10.088;2023-07-30T05:36:09;96367.94;;;22.27;70.83
20971;BME280;10644;48.834;10.088;2023-07-30T05:38:35;96352.47;;;22.34;70.37
20971;BME280;10644;48.834;10.088;2023-07-30T05:41:00;96355.09;;;22.42;70.29
20971;BME280;10644;48.834;10.088;2023-07-30T05:43:25;96358.38;;;22.44;70.30
20971;BME280;10644;48.834;10.088;2023-07-30T05:45:51;96371.28;;;22.45;70.63
20971;BME280;10644;48.834;10.088;2023-07-30T05:48:16;96368.31;;;22.40;70.46
20971;BME280;10644;48.834;10.088;2023-07-30T05:50:41;96368.63;;;22.37;71.05
20971;BME280;10644;48.834;10.088;2023-07-30T05:53:07;96354.91;;;22.35;71.40
20971;BME280;10644;48.834;10.088;2023-07-30T05:55:32;96367.00;;;22.36;71.38
20971;BME280;10644;48.834;10.088;2023-07-30T05:57:57;96362.25;;;22.40;71.25
20971;BME280;10644;48.834;10.088;2023-07-30T06:00:23;96365.53;;;22.42;70.91
20971;BME280;10644;48.834;10.088;2023-07-30T06:02:49;96358.84;;;22.39;71.27
20971;BME280;10644;48.834;10.088;2023-07-30T06:05:14;96360.84;;;22.45;71.02
20971;BME280;10644;48.834;10.088;2023-07-30T06:07:40;96358.38;;;22.44;71.04
20971;BME280;10644;48.834;10.088;2023-07-30T06:10:05;96359.84;;;22.46;71.21
20971;BME280;10644;48.834;10.088;2023-07-30T06:12:31;96370.75;;;22.42;71.79
20971;BME280;10644;48.834;10.088;2023-07-30T06:14:56;96360.31;;;22.42;71.87
20971;BME280;10644;48.834;10.088;2023-07-30T06:17:24;96363.94;;;22.49;71.38
20971;BME280;10644;48.834;10.088;2023-07-30T06:19:51;96376.34;;;22.55;71.36
20971;BME280;10644;48.834;10.088;2023-07-30T06:22:17;96364.88;;;22.64;70.87
20971;BME280;10644;48.834;10.088;2023-07-30T06:24:42;96375.84;;;22.67;71.07
20971;BME280;10644;48.834;10.088;2023-07-30T06:27:07;96381.38;;;22.64;71.11
20971;BME280;10644;48.834;10.088;2023-07-30T06:29:35;96374.19;;;22.66;71.40
20971;BME280;10644;48.834;10.088;2023-07-30T06:32:00;96375.69;;;22.45;70.85
20971;BME280;10644;48.834;10.088;2023-07-30T06:34:26;96369.66;;;22.44;71.22
20971;BME280;10644;48.834;10.088;2023-07-30T06:36:51;96373.53;;;22.40;71.32
20971;BME280;10644;48.834;10.088;2023-07-30T06:39:16;96383.00;;;22.33;71.75
20971;BME280;10644;48.834;10.088;2023-07-30T06:41:42;96385.75;;;22.32;72.06
20971;BME280;10644;48.834;10.088;2023-07-30T06:44:07;96394.09;;;22.43;71.93
20971;BME280;10644;48.834;10.088;2023-07-30T06:46:33;96389.19;;;22.40;71.80
20971;BME280;10644;48.834;10.088;2023-07-30T06:48:59;96386.56;;;22.32;71.81
20971;BME280;10644;48.834;10.088;2023-07-30T06:51:24;96396.81;;;22.10;71.95
20971;BME280;10644;48.834;10.088;2023-07-30T06:53:50;96400.22;;;22.10;72.50
20971;BME280;10644;48.834;10.088;2023-07-30T06:56:15;96409.47;;;21.89;73.49
20971;BME280;10644;48.834;10.088;2023-07-30T06:58:41;96414.13;;;21.69;74.20
20971;BME280;10644;48.834;10.088;2023-07-30T07:01:06;96410.94;;;21.83;73.72
20971;BME280;10644;48.834;10.088;2023-07-30T07:03:32;96398.19;;;21.72;73.28
20971;BME280;10644;48.834;10.088;2023-07-30T07:06:00;96399.53;;;21.84;73.04
20971;BME280;10644;48.834;10.088;2023-07-30T07:08:28;96403.56;;;21.79;73.18
20971;BME280;10644;48.834;10.088;2023-07-30T07:10:53;96407.78;;;21.72;73.19
20971;BME280;10644;48.834;10.088;2023-07-30T07:13:19;96412.06;;;21.81;72.64
20971;BME280;10644;48.834;10.088;2023-07-30T07:15:44;96419.13;;;21.96;72.52
20971;BME280;10644;48.834;10.088;2023-07-30T07:18:12;96436.69;;;21.86;73.67
20971;BME280;10644;48.834;10.088;2023-07-30T07:20:38;96421.81;;;21.79;73.52
20971;BME280;10644;48.834;10.088;2023-07-30T07:23:03;96437.09;;;21.99;73.41
20971;BME280;10644;48.834;10.088;2023-07-30T07:25:29;96420.78;;;22.05;73.36
20971;BME280;10644;48.834;10.088;2023-07-30T07:27:54;96409.22;;;22.08;73.69
20971;BME280;10644;48.834;10.088;2023-07-30T07:30:20;96422.91;;;22.10;73.34
20971;BME280;10644;48.834;10.088;2023-07-30T07:32:45;96422.28;;;22.08;73.16
20971;BME280;10644;48.834;10.088;2023-07-30T07:35:15;96417.00;;;22.00;73.47
20971;BME280;10644;48.834;10.088;2023-07-30T07:37:40;96424.19;;;21.98;73.41
20971;BME280;10644;48.834;10.088;2023-07-30T07:40:07;96424.88;;;22.08;74.30
20971;BME280;10644;48.834;10.088;2023-07-30T07:42:34;96425.22;;;22.21;73.88
20971;BME280;10644;48.834;10.088;2023-07-30T07:45:02;96435.63;;;22.05;73.19
20971;BME280;10644;48.834;10.088;2023-07-30T07:47:27;96438.44;;;21.78;74.80
20971;BME280;10644;48.834;10.088;2023-07-30T07:49:53;96429.00;;;21.85;74.90
20971;BME280;10644;48.834;10.088;2023-07-30T07:52:19;96435.06;;;21.85;74.29
20971;BME280;10644;48.834;10.088;2023-07-30T07:54:45;96434.38;;;21.75;75.42
20971;BME280;10644;48.834;10.088;2023-07-30T07:57:11;96436.06;;;21.92;74.66
20971;BME280;10644;48.834;10.088;2023-07-30T07:59:36;96434.28;;;22.01;74.81
20971;BME280;10644;48.834;10.088;2023-07-30T08:02:02;96439.56;;;22.17;74.06
20971;BME280;10644;48.834;10.088;2023-07-30T08:04:29;96432.38;;;22.19;73.13
20971;BME280;10644;48.834;10.088;2023-07-30T08:06:54;96430.41;;;22.13;72.80
20971;BME280;10644;48.834;10.088;2023-07-30T08:09:20;96435.13;;;22.01;73.19
20971;BME280;10644;48.834;10.088;2023-07-30T08:11:45;96446.41;;;22.18;73.58
20971;BME280;10644;48.834;10.088;2023-07-30T08:14:13;96435.31;;;22.24;73.18
20971;BME280;10644;48.834;10.088;2023-07-30T08:16:39;96429.13;;;22.17;73.62
20971;BME280;10644;48.834;10.088;2023-07-30T08:19:04;96439.25;;;22.20;73.60
20971;BME280;10644;48.834;10.088;2023-07-30T08:21:29;96427.84;;;22.29;73.80
20971;BME280;10644;48.834;10.088;2023-07-30T08:23:55;96435.81;;;22.27;74.12
20971;BME280;10644;48.834;10.088;2023-07-30T08:26:20;96438.44;;;22.27;73.76
20971;BME280;10644;48.834;10.088;2023-07-30T08:28:45;96439.91;;;22.30;73.72
20971;BME280;10644;48.834;10.088;2023-07-30T08:31:13;96439.28;;;22.36;73.39
20971;BME280;10644;48.834;10.088;2023-07-30T08:33:38;96439.59;;;22.33;72.96
20971;BME280;10644;48.834;10.088;2023-07-30T08:36:04;96441.56;;;22.31;72.72
20971;BME280;10644;48.834;10.088;2023-07-30T08:38:29;96440.25;;;22.35;72.49
20971;BME280;10644;48.834;10.088;2023-07-30T08:40:55;96450.72;;;22.43;72.26
20971;BME280;10644;48.834;10.088;2023-07-30T08:43:20;96437.22;;;22.47;72.86
20971;BME280;10644;48.834;10.088;2023-07-30T08:45:46;96453.38;;;22.59;73.03
20971;BME280;10644;48.834;10.088;2023-07-30T08:48:11;96457.94;;;22.57;72.61
20971;BME280;10644;48.834;10.088;2023-07-30T08:50:37;96450.09;;;22.49;72.75
20971;BME280;10644;48.834;10.088;2023-07-30T08:53:03;96464.16;;;22.56;72.38
20971;BME280;10644;48.834;10.088;2023-07-30T08:55:29;96470.53;;;22.61;71.65
20971;BME280;10644;48.834;10.088;2023-07-30T08:57:58;96485.91;;;22.23;72.16
20971;BME280;10644;48.834;10.088;2023-07-30T09:00:25;96479.47;;;22.01;72.31
20971;BME280;10644;48.834;10.088;2023-07-30T09:02:59;96491.31;;;21.88;72.52
20971;BME280;10644;48.834;10.088;2023-07-30T09:05:26;96485.09;;;21.81;70.67
20971;BME280;10644;48.834;10.088;2023-07-30T09:07:55;96490.81;;;21.84;69.99
20971;BME280;10644;48.834;10.088;2023-07-30T09:10:21;96490.94;;;21.49;69.25
20971;BME280;10644;48.834;10.088;2023-07-30T09:12:53;96491.19;;;21.38;70.18
20971;BME280;10644;48.834;10.088;2023-07-30T09:15:49;96486.88;;;21.55;70.53
20971;BME280;10644;48.834;10.088;2023-07-30T09:18:17;96477.56;;;21.70;70.18
20971;BME280;10644;48.834;10.088;2023-07-30T09:20:45;96479.69;;;21.74;70.40
20971;BME280;10644;48.834;10.088;2023-07-30T09:23:11;96481.81;;;21.79;70.45
20971;BME280;10644;48.834;10.088;2023-07-30T09:25:37;96489.13;;;21.75;70.51
20971;BME280;10644;48.834;10.088;2023-07-30T09:28:04;96479.69;;;21.74;71.05
20971;BME280;10644;48.834;10.088;2023-07-30T09:30:30;96481.16;;;21.77;70.83
20971;BME280;10644;48.834;10.088;2023-07-30T09:33:00;96475.59;;;21.72;71.79
20971;BME280;10644;48.834;10.088;2023-07-30T09:35:26;96478.47;;;21.94;72.25
20971;BME280;10644;48.834;10.088;2023-07-30T09:38:02;96479.69;;;22.16;71.40
20971;BME280;10644;48.834;10.088;2023-07-30T09:40:35;96479.56;;;22.25;70.81
20971;BME280;10644;48.834;10.088;2023-07-30T09:43:03;96477.13;;;22.40;70.02
20971;BME280;10644;48.834;10.088;2023-07-30T09:45:33;96477.28;;;22.30;70.15
20971;BME280;10644;48.834;10.088;2023-07-30T09:47:58;96487.03;;;22.20;70.74
20971;BME280;10644;48.834;10.088;2023-07-30T09:50:24;96488.84;;;22.20;70.23
20971;BME280;10644;48.834;10.088;2023-07-30T09:52:50;96481.97;;;22.11;70.28
20971;BME280;10644;48.834;10.088;2023-07-30T09:55:15;96488.75;;;21.96;71.16
20971;BME280;10644;48.834;10.088;2023-07-30T09:57:41;96477.91;;;22.16;70.30
20971;BME280;10644;48.834;10.088;2023-07-30T10:00:07;96490.75;;;22.10;70.49
20971;BME280;10644;48.834;10.088;2023-07-30T10:02:41;96488.81;;;22.12;70.48
20971;BME280;10644;48.834;10.088;2023-07-30T10:05:10;96497.81;;;22.17;70.56
20971;BME280;10644;48.834;10.088;2023-07-30T10:07:39;96482.69;;;22.37;70.54
20971;BME280;10644;48.834;10.088;2023-07-30T10:10:06;96496.78;;;22.52;69.34
20971;BME280;10644;48.834;10.088;2023-07-30T10:12:35;96482.47;;;22.72;69.22
20971;BME280;10644;48.834;10.088;2023-07-30T10:15:01;96480.81;;;22.79;67.88
20971;BME280;10644;48.834;10.088;2023-07-30T10:17:27;96466.63;;;22.89;67.87
20971;BME280;10644;48.834;10.088;2023-07-30T10:19:56;96483.44;;;23.11;67.20
20971;BME280;10644;48.834;10.088;2023-07-30T10:22:24;96475.63;;;22.87;67.56
20971;BME280;10644;48.834;10.088;2023-07-30T10:27:25;96481.47;;;22.65;67.41
20971;BME280;10644;48.834;10.088;2023-07-30T10:30:13;96482.75;;;22.69;66.48
20971;BME280;10644;48.834;10.088;2023-07-30T10:33:00;96497.59;;;22.52;67.66
20971;BME280;10644;48.834;10.088;2023-07-30T10:35:45;96491.88;;;22.49;67.91
20971;BME280;10644;48.834;10.088;2023-07-30T10:38:40;96490.59;;;22.61;66.67
20971;BME280;10644;48.834;10.088;2023-07-30T10:41:12;96495.47;;;22.48;66.24
20971;BME280;10644;48.834;10.088;2023-07-30T10:46:05;96503.53;;;22.21;66.21
20971;BME280;10644;48.834;10.088;2023-07-30T10:48:35;96505.94;;;22.06;65.63
20971;BME280;10644;48.834;10.088;2023-07-30T10:51:02;96509.03;;;22.10;65.92
20971;BME280;10644;48.834;10.088;2023-07-30T10:53:28;96511.31;;;22.13;65.72
20971;BME280;10644;48.834;10.088;2023-07-30T10:55:54;96515.59;;;22.14;66.00
20971;BME280;10644;48.834;10.088;2023-07-30T10:58:24;96517.72;;;22.26;66.13
20971;BME280;10644;48.834;10.088;2023-07-30T11:00:50;96519.88;;;22.31;65.84
20971;BME280;10644;48.834;10.088;2023-07-30T11:03:15;96522.94;;;22.26;65.45
20971;BME280;10644;48.834;10.088;2023-07-30T11:05:41;96531.03;;;22.07;66.02
20971;BME280;10644;48.834;10.088;2023-07-30T11:08:06;96523.00;;;22.01;67.11
20971;BME280;10644;48.834;10.088;2023-07-30T11:10:31;96521.09;;;22.03;67.33
20971;BME280;10644;48.834;10.088;2023-07-30T11:12:57;96521.13;;;22.19;67.51
20971;BME280;10644;48.834;10.088;2023-07-30T11:15:24;96509.25;;;22.24;66.92
20971;BME280;10644;48.834;10.088;2023-07-30T11:17:52;96522.78;;;22.28;65.57
20971;BME280;10644;48.834;10.088;2023-07-30T11:20:24;96520.81;;;22.22;66.40
20971;BME280;10644;48.834;10.088;2023-07-30T11:22:53;96519.63;;;22.50;65.40
20971;BME280;10644;48.834;10.088;2023-07-30T11:25:19;96521.44;;;22.57;64.35
20971;BME280;10644;48.834;10.088;2023-07-30T11:27:49;96518.63;;;22.43;64.22
20971;BME280;10644;48.834;10.088;2023-07-30T11:30:14;96513.78;;;22.64;63.18
20971;BME280;10644;48.834;10.088;2023-07-30T11:32:43;96512.13;;;22.55;63.63
20971;BME280;10644;48.834;10.088;2023-07-30T11:35:11;96509.88;;;22.60;61.54
20971;BME280;10644;48.834;10.088;2023-07-30T11:37:37;96506.28;;;22.61;61.63
20971;BME280;10644;48.834;10.088;2023-07-30T11:40:07;96511.03;;;22.73;61.69
20971;BME280;10644;48.834;10.088;2023-07-30T11:42:34;96505.84;;;22.89;62.57
20971;BME280;10644;48.834;10.088;2023-07-30T11:45:16;96510.56;;;23.02;62.88
20971;BME280;10644;48.834;10.088;2023-07-30T11:47:42;96519.41;;;23.17;61.48
20971;BME280;10644;48.834;10.088;2023-07-30T11:50:07;96519.69;;;23.14;60.99
20971;BME280;10644;48.834;10.088;2023-07-30T11:52:33;96507.97;;;23.18;60.42
20971;BME280;10644;48.834;10.088;2023-07-30T11:55:02;96510.88;;;23.55;61.13
20971;BME280;10644;48.834;10.088;2023-07-30T11:57:37;96508.09;;;23.64;59.87
20971;BME280;10644;48.834;10.088;2023-07-30T12:00:02;96509.88;;;23.88;59.46
20971;BME280;10644;48.834;10.088;2023-07-30T12:02:29;96503.28;;;23.92;57.32
20971;BME280;10644;48.834;10.088;2023-07-30T12:04:55;96498.72;;;23.94;57.18
20971;BME280;10644;48.834;10.088;2023-07-30T12:07:24;96511.63;;;23.95;58.76
20971;BME280;10644;48.834;10.088;2023-07-30T12:09:49;96516.31;;;24.08;59.15
20971;BME280;10644;48.834;10.088;2023-07-30T12:12:15;96497.09;;;24.23;56.58
20971;BME280;10644;48.834;10.088;2023-07-30T12:14:53;96514.47;;;24.24;57.53
20971;BME280;10644;48.834;10.088;2023-07-30T12:17:19;96507.13;;;24.50;56.74
20971;BME280;10644;48.834;10.088;2023-07-30T12:19:44;96514.66;;;24.53;54.13
20971;BME280;10644;48.834;10.088;2023-07-30T12:22:12;96520.13;;;24.36;52.86
20971;BME280;10644;48.834;10.088;2023-07-30T12:24:37;96522.56;;;23.99;52.95
20971;BME280;10644;48.834;10.088;2023-07-30T12:27:03;96523.75;;;23.80;52.61
20971;BME280;10644;48.834;10.088;2023-07-30T12:29:28;96535.72;;;23.59;53.07
20971;BME280;10644;48.834;10.088;2023-07-30T12:31:53;96538.19;;;23.44;54.59
20971;BME280;10644;48.834;10.088;2023-07-30T12:34:22;96535.22;;;23.71;54.53
20971;BME280;10644;48.834;10.088;2023-07-30T12:36:47;96533.03;;;23.99;54.12
20971;BME280;10644;48.834;10.088;2023-07-30T12:39:13;96547.06;;;24.14;53.59
20971;BME280;10644;48.834;10.088;2023-07-30T12:41:38;96541.56;;;24.01;52.34
20971;BME280;10644;48.834;10.088;2023-07-30T12:44:03;96546.50;;;23.88;52.12
20971;BME280;10644;48.834;10.088;2023-07-30T12:46:30;96545.47;;;23.97;51.75
20971;BME280;10644;48.834;10.088;2023-07-30T12:48:57;96548.69;;;24.15;52.02
20971;BME280;10644;48.834;10.088;2023-07-30T12:51:22;96543.13;;;24.10;51.15
20971;BME280;10644;48.834;10.088;2023-07-30T12:53:48;96550.63;;;24.29;51.09
20971;BME280;10644;48.834;10.088;2023-07-30T12:56:13;96535.78;;;24.52;50.55
20971;BME280;10644;48.834;10.088;2023-07-30T12:58:40;96547.00;;;24.68;50.50
20971;BME280;10644;48.834;10.088;2023-07-30T13:01:05;96529.97;;;24.95;50.13
20971;BME280;10644;48.834;10.088;2023-07-30T13:03:31;96540.28;;;25.19;49.67
20971;BME280;10644;48.834;10.088;2023-07-30T13:05:57;96544.47;;;25.28;48.56
20971;BME280;10644;48.834;10.088;2023-07-30T13:08:22;96532.59;;;25.40;48.02
20971;BME280;10644;48.834;10.088;2023-07-30T13:10:47;96538.19;;;25.37;47.65
20971;BME280;10644;48.834;10.088;2023-07-30T13:13:15;96539.22;;;25.50;48.07
20971;BME280;10644;48.834;10.088;2023-07-30T13:15:43;96551.72;;;25.48;47.20
20971;BME280;10644;48.834;10.088;2023-07-30T13:18:09;96551.38;;;25.29;47.11
20971;BME280;10644;48.834;10.088;2023-07-30T13:20:35;96545.88;;;25.16;47.44
20971;BME280;10644;48.834;10.088;2023-07-30T13:23:00;96549.28;;;25.24;47.43
20971;BME280;10644;48.834;10.088;2023-07-30T13:25:25;96544.19;;;25.23;47.40
20971;BME280;10644;48.834;10.088;2023-07-30T13:27:51;96545.28;;;25.06;48.24
20971;BME280;10644;48.834;10.088;2023-07-30T13:30:16;96540.25;;;24.96;48.12